Time;durP1;ratioP1;P1;durP2;ratioP2;P2;SDS_P1;SDS_P2;PMS_P1;PMS_P2;Temp;Humidity;BMP_temperature;BMP_pressure;BME280_temperature;BME280_humidity;BME280_pressure;Samples;Min_cycle;Max_cycle;Signal;HPM_P1;HPM_P2
2022/08/16 00:01:34;;;;;;;12.52;11.43;;;;;;;20.07;67.58;94472.03;5097399;28;20253;-70
2022/08/16 00:04:01;;;;;;;12.88;11.18;;;;;;;20.06;68.12;94474.03;5097514;28;20266;-70
2022/08/16 00:06:31;;;;;;;12.93;11.63;;;;;;;20.05;67.73;94475.28;5098446;28;20188;-69
2022/08/16 00:08:58;;;;;;;12.38;11.13;;;;;;;20.02;68.02;94476.13;5098145;28;20192;-70
2022/08/16 00:11:25;;;;;;;11.82;10.82;;;;;;;20.01;68.01;94468.13;5097489;28;20212;-69
2022/08/16 00:13:51;;;;;;;12.85;11.45;;;;;;;19.98;68.27;94467.00;5097021;28;20224;-69
2022/08/16 00:16:19;;;;;;;11.80;10.65;;;;;;;19.98;68.67;94463.41;5097892;28;20203;-70
2022/08/16 00:18:46;;;;;;;12.57;11.38;;;;;;;19.94;68.28;94457.88;5097012;28;20265;-70
2022/08/16 00:21:14;;;;;;;12.48;11.30;;;;;;;19.90;68.01;94469.16;5098106;28;20211;-69
2022/08/16 00:23:42;;;;;;;12.25;11.00;;;;;;;19.88;68.45;94467.97;5098177;28;20192;-69
2022/08/16 00:26:12;;;;;;;12.73;11.55;;;;;;;19.83;68.60;94466.47;5098084;28;20177;-70
2022/08/16 00:28:41;;;;;;;13.13;11.93;;;;;;;19.78;68.27;94480.16;5097694;28;20212;-69
2022/08/16 00:31:08;;;;;;;12.88;11.60;;;;;;;19.77;68.55;94476.56;5095695;28;20197;-70
2022/08/16 00:33:34;;;;;;;12.95;11.65;;;;;;;19.78;68.37;94483.75;5097894;28;20234;-69
2022/08/16 00:36:03;;;;;;;13.98;12.55;;;;;;;19.80;68.54;94483.31;5096938;28;20192;-69
2022/08/16 00:38:30;;;;;;;13.68;12.30;;;;;;;19.84;68.66;94478.44;5096733;28;20208;-69
2022/08/16 00:41:02;;;;;;;13.55;12.13;;;;;;;19.85;68.59;94489.22;5097747;28;20184;-69
2022/08/16 00:43:34;;;;;;;13.20;12.05;;;;;;;19.83;69.23;94488.88;5096756;28;20297;-70
2022/08/16 00:46:07;;;;;;;14.75;12.05;;;;;;;19.84;69.29;94492.44;5096849;28;20249;-70
2022/08/16 00:48:37;;;;;;;12.73;11.40;;;;;;;19.87;69.12;94500.00;5096717;28;20265;-70
2022/08/16 00:51:05;;;;;;;14.23;12.93;;;;;;;19.89;69.32;94508.72;5096929;28;20211;-69
2022/08/16 00:53:32;;;;;;;13.75;12.45;;;;;;;19.89;69.01;94503.13;5096689;28;20223;-69
2022/08/16 00:56:04;;;;;;;13.75;12.00;;;;;;;19.91;68.89;94504.31;5096583;28;20224;-69
2022/08/16 00:58:33;;;;;;;13.65;12.30;;;;;;;19.93;69.35;94507.47;5097636;28;20185;-69
2022/08/16 01:00:59;;;;;;;13.68;12.45;;;;;;;19.95;69.05;94509.84;5096664;28;20204;-70
2022/08/16 01:03:30;;;;;;;14.48;13.07;;;;;;;19.92;69.29;94516.28;5097403;28;20185;-70
2022/08/16 01:05:57;;;;;;;14.18;12.73;;;;;;;19.85;70.02;94508.78;5096538;28;20265;-70
2022/08/16 01:08:24;;;;;;;13.50;12.18;;;;;;;19.81;69.53;94508.06;5096546;28;20196;-69
2022/08/16 01:10:54;;;;;;;13.10;11.88;;;;;;;19.78;69.61;94511.72;5095923;28;20188;-69
2022/08/16 01:13:26;;;;;;;12.68;11.43;;;;;;;19.81;70.04;94519.25;5096232;28;20200;-70
2022/08/16 01:15:55;;;;;;;13.63;12.32;;;;;;;19.80;70.07;94508.50;5096173;28;20202;-70
2022/08/16 01:18:25;;;;;;;12.57;11.43;;;;;;;19.76;70.43;94514.16;5097237;28;20200;-70
2022/08/16 01:20:59;;;;;;;12.95;11.65;;;;;;;19.79;70.29;94524.50;5096449;28;20193;-70
2022/08/16 01:23:34;;;;;;;13.43;12.10;;;;;;;19.81;70.00;94516.47;5096945;28;20184;-69
2022/08/16 01:26:03;;;;;;;12.98;11.80;;;;;;;19.82;70.42;94518.03;5096890;28;20189;-69
2022/08/16 01:28:30;;;;;;;12.52;11.32;;;;;;;19.81;70.51;94524.84;5096821;28;20207;-69
2022/08/16 01:30:58;;;;;;;13.38;12.07;;;;;;;19.83;70.00;94522.44;5096106;28;20192;-69
2022/08/16 01:33:25;;;;;;;12.98;11.55;;;;;;;19.86;69.74;94526.38;5095952;28;20205;-69
2022/08/16 01:35:54;;;;;;;12.85;11.65;;;;;;;19.88;69.84;94523.94;5095816;28;20535;-69
2022/08/16 01:38:25;;;;;;;13.25;12.05;;;;;;;19.89;70.29;94533.91;5095583;28;20215;-69
2022/08/16 01:40:55;;;;;;;13.38;12.07;;;;;;;19.88;70.35;94530.34;5096477;28;20193;-69
2022/08/16 01:43:25;;;;;;;12.95;11.70;;;;;;;19.90;70.32;94533.50;5095634;28;20228;-69
2022/08/16 01:45:55;;;;;;;12.55;11.27;;;;;;;19.87;70.66;94536.38;5095607;28;20197;-69
2022/08/16 01:48:24;;;;;;;13.02;11.73;;;;;;;19.85;70.30;94531.19;5096431;28;20191;-69
2022/08/16 01:50:53;;;;;;;11.95;10.95;;;;;;;19.85;70.77;94527.59;5095300;28;20188;-69
2022/08/16 01:53:22;;;;;;;11.63;10.63;;;;;;;19.85;71.05;94530.41;5095645;28;20189;-69
2022/08/16 01:55:49;;;;;;;12.48;11.00;;;;;;;19.82;70.73;94529.22;5095848;28;20212;-70
2022/08/16 01:58:18;;;;;;;13.27;11.90;;;;;;;19.79;71.10;94532.91;5094866;28;20600;-70
2022/08/16 02:00:47;;;;;;;12.60;11.25;;;;;;;19.80;70.55;94530.91;5095294;28;20548;-70
2022/08/16 02:03:14;;;;;;;12.40;11.20;;;;;;;19.80;70.75;94539.28;5096475;28;20184;-70
2022/08/16 02:05:41;;;;;;;12.70;11.50;;;;;;;19.82;70.52;94551.63;5095231;28;20196;-69
2022/08/16 02:08:08;;;;;;;12.52;11.32;;;;;;;19.85;70.76;94550.78;5096260;28;20191;-70
2022/08/16 02:10:36;;;;;;;12.52;11.38;;;;;;;19.86;70.02;94551.56;5094874;28;20215;-69
2022/08/16 02:13:04;;;;;;;13.18;11.95;;;;;;;19.87;70.57;94567.94;5095897;28;20200;-70
2022/08/16 02:15:33;;;;;;;13.07;11.88;;;;;;;19.88;70.23;94582.72;5096081;28;20204;-70
2022/08/16 02:18:03;;;;;;;12.88;11.60;;;;;;;19.91;69.60;94587.47;5095038;28;20632;-69
2022/08/16 02:20:33;;;;;;;11.77;10.68;;;;;;;19.86;69.22;94588.75;5095103;28;20188;-69
2022/08/16 02:23:01;;;;;;;11.98;10.88;;;;;;;19.83;68.79;94600.78;5096201;28;20204;-69
2022/08/16 02:25:28;;;;;;;11.63;10.52;;;;;;;19.80;68.60;94595.25;5094724;28;20189;-69
2022/08/16 02:27:55;;;;;;;12.50;10.98;;;;;;;19.80;68.46;94592.44;5095698;28;20390;-69
2022/08/16 02:30:25;;;;;;;12.05;10.93;;;;;;;19.78;68.30;94595.66;5095897;28;20188;-70
2022/08/16 02:32:53;;;;;;;11.70;10.35;;;;;;;19.75;69.16;94590.91;5094869;28;20196;-70
2022/08/16 02:35:22;;;;;;;13.77;11.45;;;;;;;19.69;72.04;94582.22;5095375;28;20211;-70
2022/08/16 02:37:49;;;;;;;12.52;10.65;;;;;;;19.59;74.23;94599.13;5095839;28;20187;-70
2022/08/16 02:40:17;;;;;;;10.90;9.80;;;;;;;19.55;74.67;94601.19;5096098;28;20197;-70
2022/08/16 02:42:45;;;;;;;10.98;9.82;;;;;;;19.54;75.16;94599.63;5094541;28;20192;-70
2022/08/16 02:45:13;;;;;;;11.40;10.30;;;;;;;19.52;77.02;94600.03;5094829;28;20192;-70
2022/08/16 02:47:41;;;;;;;10.95;9.95;;;;;;;19.48;77.71;94602.09;5095475;28;20539;-69
2022/08/16 02:50:09;;;;;;;11.38;10.23;;;;;;;19.44;77.96;94604.16;5095164;28;20188;-69
2022/08/16 02:52:37;;;;;;;11.07;10.02;;;;;;;19.40;77.60;94598.59;5094520;28;20254;-70
2022/08/16 02:55:05;;;;;;;11.38;10.13;;;;;;;19.44;77.39;94598.56;5094591;28;20640;-70
2022/08/16 02:57:32;;;;;;;10.95;9.90;;;;;;;19.39;78.00;94591.44;5095120;28;20185;-70
2022/08/16 02:59:59;;;;;;;10.70;9.60;;;;;;;19.36;77.02;94589.47;5094355;28;20282;-69
2022/08/16 03:02:26;;;;;;;10.13;9.23;;;;;;;19.40;77.33;94587.41;5095335;28;20192;-69
2022/08/16 03:04:55;;;;;;;10.15;9.15;;;;;;;19.44;77.56;94590.16;5094401;28;20196;-69
2022/08/16 03:07:22;;;;;;;10.63;9.52;;;;;;;19.47;77.38;94584.50;5095005;28;20192;-70
2022/08/16 03:09:50;;;;;;;10.98;9.98;;;;;;;19.44;78.36;94576.97;5094473;28;20200;-70
2022/08/16 03:12:18;;;;;;;10.77;9.80;;;;;;;19.36;79.46;94575.50;5094429;28;20627;-69
2022/08/16 03:14:45;;;;;;;10.45;9.63;;;;;;;19.33;79.66;94570.75;5094742;28;20239;-69
2022/08/16 03:17:14;;;;;;;11.88;10.07;;;;;;;19.28;80.19;94553.63;5095235;28;20222;-69
2022/08/16 03:19:41;;;;;;;11.98;10.88;;;;;;;19.23;81.05;94547.31;5094824;28;20662;-69
2022/08/16 03:22:09;;;;;;;11.23;10.25;;;;;;;19.22;80.79;94550.53;5095360;28;20287;-69
2022/08/16 03:24:36;;;;;;;11.25;10.25;;;;;;;19.20;80.87;94550.16;5094241;28;20193;-69
2022/08/16 03:27:05;;;;;;;11.70;10.60;;;;;;;19.22;80.65;94556.91;5095121;28;20191;-70
2022/08/16 03:29:35;;;;;;;11.27;10.05;;;;;;;19.26;80.34;94562.47;5095089;28;20211;-70
2022/08/16 03:32:02;;;;;;;10.50;9.60;;;;;;;19.33;79.10;94553.19;5094073;28;20240;-70
2022/08/16 03:34:32;;;;;;;10.82;9.73;;;;;;;19.31;79.80;94552.78;5094632;28;20227;-70
2022/08/16 03:36:59;;;;;;;10.68;9.68;;;;;;;19.29;80.11;94560.81;5094686;28;20192;-70
2022/08/16 03:39:28;;;;;;;10.88;9.98;;;;;;;19.19;80.71;94559.75;5094925;28;20220;-70
2022/08/16 03:41:54;;;;;;;11.15;10.10;;;;;;;19.13;81.37;94559.44;5094972;28;20181;-70
2022/08/16 03:44:23;;;;;;;11.52;10.45;;;;;;;19.19;80.18;94559.75;5094983;28;20253;-70
2022/08/16 03:46:49;;;;;;;10.73;9.73;;;;;;;19.25;80.10;94555.28;5094163;28;20192;-70
2022/08/16 03:49:16;;;;;;;11.35;10.35;;;;;;;19.22;80.59;94556.13;5094456;28;20574;-70
2022/08/16 03:51:43;;;;;;;10.65;9.73;;;;;;;19.20;80.88;94566.94;5094630;28;20195;-70
2022/08/16 03:54:12;;;;;;;10.85;9.77;;;;;;;19.20;80.46;94562.13;5094072;28;20193;-69
2022/08/16 03:56:39;;;;;;;11.20;10.20;;;;;;;19.22;79.68;94559.72;5094812;28;20192;-70
2022/08/16 03:59:06;;;;;;;10.63;9.73;;;;;;;19.23;80.10;94555.69;5094313;28;20540;-70
2022/08/16 04:01:34;;;;;;;10.90;10.00;;;;;;;19.26;80.74;94562.47;5093591;28;20193;-70
2022/08/16 04:04:01;;;;;;;10.88;9.75;;;;;;;19.27;80.55;94563.25;5095060;28;20200;-70
2022/08/16 04:06:28;;;;;;;10.52;9.63;;;;;;;19.24;80.90;94567.66;5097217;28;20197;-70
2022/08/16 04:08:55;;;;;;;11.63;10.52;;;;;;;19.24;81.20;94557.28;5098584;28;20188;-70
2022/08/16 04:11:23;;;;;;;10.77;9.77;;;;;;;19.27;81.10;94554.84;5097513;28;20211;-70
2022/08/16 04:13:49;;;;;;;10.65;9.60;;;;;;;19.24;81.28;94557.28;5097964;28;20618;-72
2022/08/16 04:16:16;;;;;;;10.10;9.20;;;;;;;19.29;80.17;94558.03;5097064;28;20219;-70
2022/08/16 04:18:48;;;;;;;10.45;9.45;;;;;;;19.38;77.97;94553.47;5097067;28;20188;-69
2022/08/16 04:21:15;;;;;;;10.68;9.65;;;;;;;19.37;78.05;94553.91;5097117;28;20536;-70
2022/08/16 04:23:42;;;;;;;10.48;9.48;;;;;;;19.33;79.09;94548.38;5098083;28;20196;-69
2022/08/16 04:26:09;;;;;;;10.88;9.88;;;;;;;19.28;79.11;94551.66;5098046;28;20200;-70
2022/08/16 04:28:36;;;;;;;9.88;8.95;;;;;;;19.28;79.32;94550.84;5097586;28;20200;-70
2022/08/16 04:31:10;;;;;;;10.40;9.40;;;;;;;19.26;80.14;94559.66;5097732;28;20177;-70
2022/08/16 04:33:37;;;;;;;10.55;9.55;;;;;;;19.29;80.35;94558.03;5097904;28;20184;-70
2022/08/16 04:36:06;;;;;;;11.18;10.18;;;;;;;19.29;80.95;94560.81;5097490;28;20204;-70
2022/08/16 04:38:33;;;;;;;11.13;10.02;;;;;;;19.28;81.56;94545.25;5097082;28;20192;-70
2022/08/16 04:41:00;;;;;;;11.32;10.23;;;;;;;19.30;81.55;94545.63;5097559;28;20192;-70
2022/08/16 04:43:27;;;;;;;11.00;10.00;;;;;;;19.31;81.95;94550.00;5096580;28;20244;-69
2022/08/16 04:45:55;;;;;;;11.70;10.65;;;;;;;19.31;82.05;94561.19;5096785;28;20196;-70
2022/08/16 04:48:22;;;;;;;11.45;10.45;;;;;;;19.31;82.11;94558.38;5096926;28;20211;-70
2022/08/16 04:50:49;;;;;;;11.02;10.02;;;;;;;19.35;81.89;94556.31;5097620;28;20207;-70
2022/08/16 04:53:17;;;;;;;11.43;10.40;;;;;;;19.36;80.89;94571.91;5096767;28;20245;-71
2022/08/16 04:55:45;;;;;;;12.10;11.05;;;;;;;19.36;80.72;94557.94;5097465;28;20212;-71
2022/08/16 04:58:13;;;;;;;12.30;11.10;;;;;;;19.34;80.98;94554.75;5097415;28;20192;-72
2022/08/16 05:00:40;;;;;;;12.02;10.93;;;;;;;19.32;81.63;94576.75;5097631;28;20181;-71
2022/08/16 05:03:08;;;;;;;12.73;11.43;;;;;;;19.30;82.20;94585.56;5097546;28;20192;-71
2022/08/16 05:05:37;;;;;;;12.52;11.38;;;;;;;19.33;82.18;94578.34;5097323;28;20196;-71
2022/08/16 05:08:06;;;;;;;12.65;11.45;;;;;;;19.34;82.09;94583.50;5096343;28;20200;-70
2022/08/16 05:10:35;;;;;;;13.60;12.30;;;;;;;19.34;82.52;94577.13;5096919;28;20275;-70
2022/08/16 05:13:05;;;;;;;13.80;12.50;;;;;;;19.34;82.35;94582.72;5096341;28;20200;-70
2022/08/16 05:15:34;;;;;;;14.43;13.02;;;;;;;19.31;81.83;94580.75;5097190;28;20628;-70
2022/08/16 05:18:02;;;;;;;14.80;13.35;;;;;;;19.29;81.38;94583.19;5096020;28;20541;-71
2022/08/16 05:20:31;;;;;;;14.75;13.25;;;;;;;19.30;81.46;94587.56;5096208;28;20206;-71
2022/08/16 05:22:58;;;;;;;14.40;13.00;;;;;;;19.30;81.09;94584.78;5096296;28;20184;-71
2022/08/16 05:25:25;;;;;;;15.00;13.55;;;;;;;19.32;80.96;94588.75;5096593;28;20217;-72
2022/08/16 05:27:56;;;;;;;16.05;14.43;;;;;;;19.33;81.10;94586.72;5096466;28;20211;-72
2022/08/16 05:30:24;;;;;;;14.80;13.45;;;;;;;19.34;81.54;94583.50;5097184;28;20177;-72
2022/08/16 05:32:51;;;;;;;14.43;13.07;;;;;;;19.36;81.28;94592.28;5096724;28;20180;-73
2022/08/16 05:35:18;;;;;;;15.32;13.88;;;;;;;19.40;80.57;94586.63;5096349;28;20228;-72
2022/08/16 05:37:45;;;;;;;16.38;14.80;;;;;;;19.42;80.86;94575.78;5096937;28;20188;-73
2022/08/16 05:40:13;;;;;;;15.60;13.98;;;;;;;19.44;80.74;94578.97;5096481;28;20203;-73
2022/08/16 05:42:42;;;;;;;15.88;14.25;;;;;;;19.44;80.44;94582.56;5096662;28;20189;-73
2022/08/16 05:45:11;;;;;;;15.27;13.75;;;;;;;19.44;80.72;94582.56;5095487;28;20264;-73
2022/08/16 05:47:37;;;;;;;14.90;13.40;;;;;;;19.47;80.71;94578.94;5096884;28;20207;-73
2022/08/16 05:50:06;;;;;;;14.52;13.23;;;;;;;19.49;80.77;94579.28;5095813;28;20196;-73
2022/08/16 05:52:34;;;;;;;14.80;13.40;;;;;;;19.50;80.24;94588.47;5096300;28;20190;-73
2022/08/16 05:55:00;;;;;;;14.88;13.55;;;;;;;19.53;80.39;94584.03;5095878;28;20494;-72
2022/08/16 05:57:27;;;;;;;14.75;13.25;;;;;;;19.53;80.40;94576.44;5095226;28;20561;-73
2022/08/16 05:59:54;;;;;;;15.50;13.85;;;;;;;19.56;81.18;94578.38;5095199;28;20199;-73
2022/08/16 06:02:25;;;;;;;15.27;13.82;;;;;;;19.59;80.35;94588.72;5096406;28;20192;-73
2022/08/16 06:04:52;;;;;;;15.43;13.93;;;;;;;19.61;80.16;94591.91;5095486;28;20204;-73
2022/08/16 06:07:20;;;;;;;16.42;14.75;;;;;;;19.63;80.91;94586.69;5096165;28;20196;-72
2022/08/16 06:09:47;;;;;;;16.23;14.50;;;;;;;19.64;81.39;94588.28;5095216;28;20269;-72
2022/08/16 06:12:17;;;;;;;17.08;15.27;;;;;;;19.67;80.26;94590.22;5095675;28;20199;-72
2022/08/16 06:14:44;;;;;;;15.60;14.10;;;;;;;19.70;80.04;94583.78;5095547;28;20192;-73
2022/08/16 06:17:10;;;;;;;15.70;14.30;;;;;;;19.70;80.62;94583.78;5095241;28;20209;-73
2022/08/16 06:19:39;;;;;;;15.38;14.05;;;;;;;19.75;80.10;94592.91;5094865;28;20197;-73
2022/08/16 06:22:07;;;;;;;16.40;14.82;;;;;;;19.78;79.48;94587.25;5095148;28;20216;-73
2022/08/16 06:24:33;;;;;;;14.98;13.57;;;;;;;19.85;79.19;94586.38;5095938;28;20184;-73
2022/08/16 06:27:02;;;;;;;16.23;14.63;;;;;;;19.88;79.52;94577.13;5095306;28;20200;-73
2022/08/16 06:29:29;;;;;;;13.95;12.65;;;;;;;19.94;79.07;94584.63;5094457;28;20200;-72
2022/08/16 06:31:57;;;;;;;15.48;13.98;;;;;;;19.97;79.42;94580.16;5095573;28;20188;-73
2022/08/16 06:34:23;;;;;;;15.23;13.73;;;;;;;19.99;79.91;94571.34;5095895;28;20181;-72
2022/08/16 06:36:53;;;;;;;15.52;13.95;;;;;;;20.00;79.87;94572.91;5095354;28;20236;-73
2022/08/16 06:39:20;;;;;;;15.65;14.15;;;;;;;20.01;78.54;94578.09;5095826;28;20192;-73
2022/08/16 06:41:47;;;;;;;15.63;14.02;;;;;;;20.03;78.37;94584.06;5094851;28;20207;-73
2022/08/16 06:44:14;;;;;;;14.48;13.18;;;;;;;20.08;78.73;94578.00;5095719;28;20247;-72
2022/08/16 06:46:41;;;;;;;15.02;13.55;;;;;;;20.16;78.19;94570.25;5094888;28;20200;-72
2022/08/16 06:49:10;;;;;;;15.38;13.88;;;;;;;20.20;77.96;94571.75;5094794;28;20208;-71
2022/08/16 06:51:38;;;;;;;15.77;14.13;;;;;;;20.25;77.83;94569.69;5094796;28;20204;-72
2022/08/16 06:54:07;;;;;;;15.52;14.02;;;;;;;20.30;78.09;94571.97;5094735;28;20195;-71
2022/08/16 06:56:34;;;;;;;15.68;14.02;;;;;;;20.32;78.91;94575.16;5095225;28;20201;-71
2022/08/16 06:59:01;;;;;;;17.38;15.55;;;;;;;20.35;78.62;94568.72;5094698;28;20200;-72
2022/08/16 07:01:28;;;;;;;17.42;15.70;;;;;;;20.39;78.96;94549.81;5094615;28;20210;-70
2022/08/16 07:03:55;;;;;;;20.55;18.35;;;;;;;20.42;79.00;94546.97;5094443;28;20665;-71
2022/08/16 07:06:23;;;;;;;19.20;17.35;;;;;;;20.46;78.78;94544.09;5095807;28;20187;-73
2022/08/16 07:08:50;;;;;;;17.17;15.50;;;;;;;20.48;79.10;94541.66;5094700;28;20192;-73
2022/08/16 07:11:21;;;;;;;13.38;11.98;;;;;;;20.53;78.58;94546.00;5095184;28;20200;-73
2022/08/16 07:13:49;;;;;;;13.95;12.65;;;;;;;20.56;78.33;94545.94;5094186;28;20205;-71
2022/08/16 07:16:16;;;;;;;15.70;14.20;;;;;;;20.59;78.52;94544.28;5094627;28;20224;-70
2022/08/16 07:18:43;;;;;;;14.18;12.73;;;;;;;20.64;78.06;94538.16;5077238;28;20200;-70
2022/08/16 07:21:11;;;;;;;13.80;11.07;;;;;;;20.70;77.87;94538.44;5094383;28;20196;-70
2022/08/16 07:23:42;;;;;;;13.73;12.32;;;;;;;20.75;77.68;94530.31;5095195;28;20185;-72
2022/08/16 07:26:12;;;;;;;13.15;11.82;;;;;;;20.82;77.56;94526.59;5095455;28;20184;-72
2022/08/16 07:28:40;;;;;;;11.63;10.43;;;;;;;20.90;77.21;94525.22;5094445;28;20196;-72
2022/08/16 07:31:07;;;;;;;12.15;11.05;;;;;;;20.96;75.65;94529.09;5094655;28;20315;-72
2022/08/16 07:33:36;;;;;;;11.73;10.52;;;;;;;21.05;75.21;94534.09;5094832;28;20200;-71
2022/08/16 07:36:08;;;;;;;12.27;10.85;;;;;;;21.11;74.42;94527.56;5095015;28;20298;-71
2022/08/16 07:38:35;;;;;;;11.43;10.27;;;;;;;21.17;74.15;94525.03;5094028;28;20257;-71
2022/08/16 07:41:03;;;;;;;11.60;10.50;;;;;;;21.24;73.94;94529.69;5097637;28;20207;-70
2022/08/16 07:43:30;;;;;;;11.55;10.45;;;;;;;21.30;74.09;94528.72;5098905;28;20264;-70
2022/08/16 07:45:59;;;;;;;12.05;10.85;;;;;;;21.36;74.10;94534.66;5098903;28;20188;-70
2022/08/16 07:48:26;;;;;;;11.55;10.45;;;;;;;21.41;73.73;94531.31;5098929;28;20250;-70
2022/08/16 07:50:53;;;;;;;12.02;10.93;;;;;;;21.50;74.22;94527.94;5098014;28;20192;-71
2022/08/16 07:53:20;;;;;;;13.05;11.75;;;;;;;21.60;73.95;94524.06;5098825;28;20196;-70
2022/08/16 07:55:47;;;;;;;12.77;11.45;;;;;;;21.69;73.16;94526.28;5098680;28;20176;-70
2022/08/16 07:58:16;;;;;;;11.98;10.77;;;;;;;21.74;72.69;94532.13;5097831;28;20223;-73
2022/08/16 08:00:44;;;;;;;11.60;10.40;;;;;;;21.83;72.42;94532.31;5098262;28;20199;-72
2022/08/16 08:03:14;;;;;;;11.43;10.35;;;;;;;21.94;71.71;94536.88;5098491;28;20188;-71
2022/08/16 08:05:41;;;;;;;10.60;9.50;;;;;;;22.01;71.30;94533.91;5098541;28;20249;-72
2022/08/16 08:08:10;;;;;;;11.85;10.65;;;;;;;22.03;70.02;94543.44;5098083;28;20201;-71
2022/08/16 08:10:37;;;;;;;9.88;8.85;;;;;;;22.16;67.46;94534.34;5097613;28;20587;-71
2022/08/16 08:13:04;;;;;;;9.05;8.25;;;;;;;22.22;68.18;94532.56;5097453;28;20189;-71
2022/08/16 08:15:30;;;;;;;9.20;8.40;;;;;;;22.26;66.69;94536.88;5098901;28;20185;-71
2022/08/16 08:18:00;;;;;;;8.75;7.85;;;;;;;22.34;68.20;94541.06;5097773;28;20235;-72
2022/08/16 08:20:30;;;;;;;7.85;7.15;;;;;;;22.44;66.58;94532.78;5097225;28;20307;-73
2022/08/16 08:22:59;;;;;;;8.65;7.85;;;;;;;22.51;66.74;94527.78;5098511;28;20544;-73
2022/08/16 08:25:26;;;;;;;9.02;7.93;;;;;;;22.57;66.24;94531.59;5098571;28;20192;-72
2022/08/16 08:27:53;;;;;;;8.75;7.00;;;;;;;22.67;65.26;94534.56;5097385;28;20193;-72
2022/08/16 08:30:20;;;;;;;7.95;7.25;;;;;;;22.72;63.25;94543.25;5098373;28;20207;-72
2022/08/16 08:32:47;;;;;;;6.65;6.05;;;;;;;22.70;58.31;94540.09;5098105;28;20180;-74
2022/08/16 08:35:15;;;;;;;6.95;6.28;;;;;;;22.77;56.90;94537.09;5097108;28;20211;-71
2022/08/16 08:37:44;;;;;;;6.97;6.28;;;;;;;22.83;58.20;94540.13;5099013;28;20579;-69
2022/08/16 08:40:14;;;;;;;6.80;6.20;;;;;;;22.91;58.53;94543.50;5100406;28;20181;-70
2022/08/16 08:42:42;;;;;;;6.88;6.30;;;;;;;23.01;58.42;94540.44;5098788;28;20192;-70
2022/08/16 08:45:14;;;;;;;6.85;6.32;;;;;;;23.12;58.74;94542.94;5097439;28;20242;-71
2022/08/16 08:47:45;;;;;;;6.75;6.25;;;;;;;23.32;55.87;94556.81;5097755;28;20189;-70
2022/08/16 08:50:14;;;;;;;6.78;6.18;;;;;;;23.44;57.13;94543.97;5098804;28;20616;-71
2022/08/16 08:52:43;;;;;;;7.32;6.55;;;;;;;23.52;56.51;94536.88;5097756;28;20200;-72
2022/08/16 08:55:12;;;;;;;6.88;6.30;;;;;;;23.64;55.08;94540.94;5099568;28;20192;-71
2022/08/16 08:57:40;;;;;;;7.13;6.43;;;;;;;23.77;57.26;94538.94;5097718;28;20204;-71
2022/08/16 09:00:10;;;;;;;7.35;6.65;;;;;;;23.93;53.66;94540.84;5096879;28;20204;-70
2022/08/16 09:02:36;;;;;;;7.50;6.90;;;;;;;24.06;54.59;94535.19;5097758;28;20207;-68
2022/08/16 09:05:06;;;;;;;6.68;6.07;;;;;;;24.08;56.14;94536.31;5097746;28;20184;-68
2022/08/16 09:07:33;;;;;;;8.18;7.15;;;;;;;24.15;54.79;94529.66;5097423;28;20192;-68
2022/08/16 09:10:04;;;;;;;7.55;6.93;;;;;;;24.27;55.71;94526.03;5097168;28;20180;-68
2022/08/16 09:12:31;;;;;;;7.22;6.53;;;;;;;24.38;53.07;94540.53;5097354;28;20184;-68
2022/08/16 09:14:59;;;;;;;7.90;7.13;;;;;;;24.45;54.87;94540.31;5097363;28;20184;-68
2022/08/16 09:17:26;;;;;;;7.38;6.78;;;;;;;24.56;52.00;94541.97;5097550;28;20249;-71
2022/08/16 09:19:54;;;;;;;7.43;6.72;;;;;;;24.67;53.10;94542.38;5097348;28;20272;-71
2022/08/16 09:22:20;;;;;;;7.13;6.53;;;;;;;24.66;52.47;94541.59;5097099;28;20624;-70
2022/08/16 09:24:50;;;;;;;6.50;6.00;;;;;;;24.52;52.09;94544.13;5096265;28;20196;-70
2022/08/16 09:27:21;;;;;;;7.80;7.10;;;;;;;24.63;51.11;94536.06;5097514;28;20238;-70
2022/08/16 09:29:47;;;;;;;7.88;7.18;;;;;;;24.69;51.67;94539.88;5095925;28;20283;-70
2022/08/16 09:32:18;;;;;;;7.30;6.70;;;;;;;24.74;51.46;94537.25;5096527;28;20204;-70
2022/08/16 09:34:45;;;;;;;7.18;6.60;;;;;;;24.86;51.56;94535.63;5097057;28;20180;-71
2022/08/16 09:37:14;;;;;;;7.43;6.72;;;;;;;24.76;51.81;94539.59;5095935;28;20274;-71
2022/08/16 09:39:44;;;;;;;7.45;6.75;;;;;;;24.76;51.16;94536.00;5095668;28;20238;-70
2022/08/16 09:42:13;;;;;;;6.53;6.03;;;;;;;24.85;51.11;94531.22;5095884;28;20699;-71
2022/08/16 09:44:43;;;;;;;6.47;5.90;;;;;;;24.84;50.17;94526.06;5096435;28;20244;-70
2022/08/16 09:47:10;;;;;;;6.32;5.82;;;;;;;24.72;50.69;94533.31;5096382;28;20293;-71
2022/08/16 09:49:37;;;;;;;7.13;6.47;;;;;;;24.63;50.48;94534.03;5096816;28;20188;-71
2022/08/16 09:52:04;;;;;;;7.45;6.72;;;;;;;24.70;50.65;94538.66;5096969;28;20195;-69
2022/08/16 09:54:31;;;;;;;7.00;6.47;;;;;;;24.89;49.38;94536.75;5096753;28;20185;-70
2022/08/16 09:56:58;;;;;;;7.03;6.40;;;;;;;25.14;49.31;94538.66;5095749;28;20291;-68
2022/08/16 09:59:28;;;;;;;6.50;5.90;;;;;;;25.17;48.95;94529.28;5095814;28;20200;-69
2022/08/16 10:01:59;;;;;;;6.85;6.25;;;;;;;25.06;48.72;94538.13;5095730;28;20196;-69
2022/08/16 10:04:26;;;;;;;7.00;6.40;;;;;;;24.96;49.29;94528.03;5096840;28;20213;-69
2022/08/16 10:06:55;;;;;;;7.05;6.35;;;;;;;25.01;50.68;94526.63;5096067;28;20576;-69
2022/08/16 10:09:22;;;;;;;6.50;6.00;;;;;;;25.15;50.23;94526.13;5096731;28;20271;-69
2022/08/16 10:14:35;;;;;;;6.90;6.20;;;;;;;25.19;48.22;94527.56;5095822;28;20200;-69
2022/08/16 10:17:05;;;;;;;6.95;6.35;;;;;;;25.10;48.81;94521.06;5078563;28;20239;-69
2022/08/16 10:19:33;;;;;;;6.72;6.13;;;;;;;25.19;50.21;94521.91;5095980;28;20184;-69
2022/08/16 10:22:00;;;;;;;7.82;6.63;;;;;;;25.52;47.98;94523.50;5095740;28;20181;-69
2022/08/16 10:24:27;;;;;;;7.22;6.53;;;;;;;25.73;46.87;94519.03;5096405;28;20191;-68
2022/08/16 10:26:56;;;;;;;6.85;6.25;;;;;;;25.89;46.70;94522.44;5095576;28;20613;-69
2022/08/16 10:29:25;;;;;;;6.38;5.88;;;;;;;26.07;45.83;94524.53;5095232;28;20583;-68
2022/08/16 10:31:51;;;;;;;7.00;6.43;;;;;;;26.09;46.36;94518.41;5095524;28;20195;-69
2022/08/16 10:34:21;;;;;;;6.93;6.32;;;;;;;25.96;48.05;94526.97;5095844;28;20597;-69
2022/08/16 10:36:49;;;;;;;6.78;6.28;;;;;;;25.80;49.74;94530.88;5095558;28;20640;-68
2022/08/16 10:39:19;;;;;;;7.88;7.13;;;;;;;25.64;52.34;94536.75;5094585;28;20189;-68
2022/08/16 10:41:47;;;;;;;8.02;7.32;;;;;;;25.43;55.19;94536.31;5094962;28;20216;-69
2022/08/16 10:44:32;;;;;;;10.00;8.20;;;;;;;25.21;58.14;94529.94;5094744;28;20235;-71
2022/08/16 10:46:59;;;;;;;9.18;8.23;;;;;;;25.02;56.83;94531.03;5095799;28;20211;-71
2022/08/16 10:49:28;;;;;;;7.97;7.18;;;;;;;24.86;58.43;94532.00;5095502;28;20192;-71
2022/08/16 10:51:58;;;;;;;9.05;7.80;;;;;;;24.73;60.68;94521.59;5094337;28;20204;-70
2022/08/16 10:54:25;;;;;;;9.15;7.53;;;;;;;24.73;60.58;94523.63;5094882;28;20207;-70
2022/08/16 10:56:54;;;;;;;7.78;7.07;;;;;;;24.70;60.95;94519.69;5094947;28;20220;-71
2022/08/16 10:59:22;;;;;;;8.15;7.35;;;;;;;24.66;62.26;94527.50;5095769;28;20196;-70
2022/08/16 11:01:48;;;;;;;7.88;7.13;;;;;;;24.70;62.22;94524.53;5095373;28;20188;-70
2022/08/16 11:04:17;;;;;;;8.23;7.43;;;;;;;24.72;63.70;94522.03;5095376;28;20200;-71
2022/08/16 11:06:46;;;;;;;8.27;7.57;;;;;;;24.74;64.41;94513.91;5095914;28;20199;-70
2022/08/16 11:09:15;;;;;;;9.48;7.35;;;;;;;24.84;65.61;94512.75;5095526;28;20176;-71
2022/08/16 11:11:42;;;;;;;9.60;8.05;;;;;;;24.92;65.78;94519.69;5095269;28;20215;-71
2022/08/16 11:14:11;;;;;;;8.07;7.38;;;;;;;24.94;63.27;94516.41;5097062;28;20181;-72
2022/08/16 11:16:38;;;;;;;8.45;7.65;;;;;;;24.91;64.62;94523.75;5099794;28;20249;-71
2022/08/16 11:19:06;;;;;;;7.57;6.97;;;;;;;24.89;63.68;94519.81;5099639;28;20176;-72
2022/08/16 11:21:33;;;;;;;7.95;7.25;;;;;;;24.89;64.37;94514.97;5099474;28;20227;-71
2022/08/16 11:24:04;;;;;;;8.82;8.02;;;;;;;24.88;62.25;94509.78;5098817;28;20196;-71
2022/08/16 11:26:32;;;;;;;8.57;7.88;;;;;;;24.84;62.13;94507.09;5099604;28;20207;-70
2022/08/16 11:28:59;;;;;;;7.88;7.07;;;;;;;24.79;60.43;94516.13;5099527;28;20189;-69